createdAt,value
2019-05-07T00:01:14.133Z,101030.02
2019-05-07T00:03:46.001Z,101025.45
2019-05-07T00:06:18.648Z,101031.70
2019-05-07T00:08:52.282Z,101022.96
2019-05-07T00:11:24.898Z,101028.39
2019-05-07T00:13:58.141Z,101018.22
2019-05-07T00:16:32.403Z,101031.91
2019-05-07T00:19:03.795Z,101027.94
2019-05-07T00:21:35.958Z,101030.99
2019-05-07T00:24:10.207Z,101030.77
2019-05-07T00:26:43.026Z,101029.87
2019-05-07T00:29:15.563Z,101032.00
2019-05-07T00:31:47.823Z,101031.28
2019-05-07T00:34:21.959Z,101031.09
2019-05-07T00:36:54.833Z,101024.63
2019-05-07T00:39:28.116Z,101031.16
2019-05-07T00:42:03.040Z,101035.56
2019-05-07T00:44:36.540Z,101039.83
2019-05-07T00:47:08.638Z,101038.44
2019-05-07T00:49:42.541Z,101040.40
2019-05-07T00:52:15.052Z,101042.19
2019-05-07T00:54:47.046Z,101037.68
2019-05-07T00:57:18.844Z,101044.70
2019-05-07T00:59:52.507Z,101048.88
2019-05-07T01:02:24.304Z,101048.27
2019-05-07T01:04:56.472Z,101045.03
2019-05-07T01:07:28.009Z,101046.98
2019-05-07T01:10:02.013Z,101051.15
2019-05-07T01:12:33.974Z,101055.94
2019-05-07T01:15:06.907Z,101047.60
2019-05-07T01:17:38.432Z,101047.60
2019-05-07T01:20:12.435Z,101056.50
2019-05-07T01:22:43.775Z,101049.78
2019-05-07T01:25:16.432Z,101053.76
2019-05-07T01:27:48.422Z,101056.34
2019-05-07T01:30:20.047Z,101051.48
2019-05-07T01:32:53.371Z,101055.19
2019-05-07T01:35:27.381Z,101053.87
2019-05-07T01:37:59.586Z,101052.28
2019-05-07T01:40:32.588Z,101059.92
2019-05-07T01:43:04.314Z,101061.18
2019-05-07T01:45:46.369Z,101064.81
2019-05-07T01:48:11.821Z,101062.23
2019-05-07T01:50:43.011Z,101066.80
2019-05-07T01:53:14.544Z,101065.53
2019-05-07T01:55:46.008Z,101070.05
2019-05-07T01:58:17.456Z,101067.80
2019-05-07T02:00:49.113Z,101067.70
2019-05-07T02:03:23.052Z,101063.16
2019-05-07T02:05:56.427Z,101065.84
2019-05-07T02:08:29.249Z,101064.72
2019-05-07T02:11:02.262Z,101062.77
2019-05-07T02:13:34.338Z,101064.22
2019-05-07T02:16:05.755Z,101065.53
2019-05-07T02:18:37.336Z,101064.83
2019-05-07T02:21:09.622Z,101060.22
2019-05-07T02:23:43.808Z,101059.59
2019-05-07T02:26:15.213Z,101054.59
2019-05-07T02:28:46.885Z,101062.86
2019-05-07T02:31:18.029Z,101061.03
2019-05-07T02:33:49.527Z,101062.22
2019-05-07T02:36:23.712Z,101065.46
2019-05-07T02:38:55.752Z,101065.36
2019-05-07T02:41:28.600Z,101072.72
2019-05-07T02:44:03.969Z,101066.43
2019-05-07T02:46:36.377Z,101067.72
2019-05-07T02:49:10.307Z,101060.77
2019-05-07T02:51:43.818Z,101062.70
2019-05-07T02:54:16.986Z,101059.48
2019-05-07T02:56:48.178Z,101062.06
2019-05-07T02:59:20.278Z,101066.09
2019-05-07T03:01:53.694Z,101056.92
2019-05-07T03:04:26.071Z,101056.81
2019-05-07T03:06:58.740Z,101061.42
2019-05-07T03:09:32.847Z,101063.51
2019-05-07T03:12:07.835Z,101062.72
2019-05-07T03:14:43.810Z,101061.97
2019-05-07T03:17:14.227Z,101068.34
2019-05-07T03:19:48.049Z,101065.38
2019-05-07T03:22:23.052Z,101066.22
2019-05-07T03:24:54.406Z,101068.66
2019-05-07T03:27:26.065Z,101064.55
2019-05-07T03:29:59.037Z,101063.16
2019-05-07T03:32:38.107Z,101070.49
2019-05-07T03:35:08.534Z,101070.34
2019-05-07T03:37:40.307Z,101073.56
2019-05-07T03:40:14.236Z,101080.35
2019-05-07T03:42:44.869Z,101079.36
2019-05-07T03:45:18.473Z,101081.64
2019-05-07T03:47:54.124Z,101074.95
2019-05-07T03:50:24.002Z,101079.06
2019-05-07T03:52:55.731Z,101082.30
2019-05-07T03:55:27.241Z,101084.27
2019-05-07T03:57:58.542Z,101087.34
2019-05-07T04:00:33.048Z,101095.19
2019-05-07T04:03:03.674Z,101094.44
2019-05-07T04:05:35.442Z,101099.94
2019-05-07T04:08:06.689Z,101092.55
2019-05-07T04:10:38.520Z,101093.72
2019-05-07T04:13:13.244Z,101095.75
2019-05-07T04:15:44.250Z,101098.04
2019-05-07T04:18:16.328Z,101101.64
2019-05-07T04:20:47.894Z,101100.39
2019-05-07T04:23:22.947Z,101100.88
2019-05-07T04:25:54.629Z,101101.36
2019-05-07T04:28:28.650Z,101097.30
2019-05-07T04:31:02.930Z,101093.82
2019-05-07T04:33:36.097Z,101094.23
2019-05-07T04:36:08.819Z,101095.03
2019-05-07T04:38:43.930Z,101085.72
2019-05-07T04:41:16.389Z,101093.27
2019-05-07T04:43:47.814Z,101086.14
2019-05-07T04:46:19.468Z,101093.37
2019-05-07T04:48:52.848Z,101098.17
2019-05-07T04:51:25.588Z,101098.66
2019-05-07T04:53:58.558Z,101103.10
2019-05-07T04:56:30.013Z,101098.22
2019-05-07T04:59:03.649Z,101104.16
2019-05-07T05:01:38.142Z,101110.41
2019-05-07T05:04:25.816Z,101109.49
2019-05-07T05:06:44.432Z,101118.50
2019-05-07T05:09:15.781Z,101112.83
2019-05-07T05:11:47.166Z,101106.53
2019-05-07T05:14:18.375Z,101111.34
2019-05-07T05:16:52.495Z,101113.73
2019-05-07T05:19:24.012Z,101104.24
2019-05-07T05:21:56.950Z,101107.75
2019-05-07T05:24:32.802Z,101120.02
2019-05-07T05:27:05.136Z,101117.66
2019-05-07T05:29:38.754Z,101121.08
2019-05-07T05:32:12.050Z,101121.76
2019-05-07T05:34:43.881Z,101127.93
2019-05-07T05:37:16.679Z,101127.80
2019-05-07T05:40:02.508Z,101125.93
2019-05-07T05:42:24.273Z,101124.66
2019-05-07T05:44:56.200Z,101130.82
2019-05-07T05:47:27.812Z,101125.17
2019-05-07T05:50:01.891Z,101126.58
2019-05-07T05:52:34.144Z,101126.03
2019-05-07T05:55:08.368Z,101125.73
2019-05-07T05:57:42.414Z,101131.84
2019-05-07T06:00:16.391Z,101132.16
2019-05-07T06:02:52.945Z,101128.56
2019-05-07T06:05:24.246Z,101130.68
2019-05-07T06:07:57.530Z,101136.55
2019-05-07T06:10:32.890Z,101130.69
2019-05-07T06:13:05.529Z,101134.38
2019-05-07T06:15:39.171Z,101144.06
2019-05-07T06:18:20.997Z,101138.27
2019-05-07T06:20:49.097Z,101133.77
2019-05-07T06:23:22.522Z,101131.67
2019-05-07T06:25:54.259Z,101131.09
2019-05-07T06:28:26.230Z,101141.47
2019-05-07T06:30:57.991Z,101133.69
2019-05-07T06:33:32.284Z,101137.27
2019-05-07T06:36:04.367Z,101138.77
2019-05-07T06:38:37.252Z,101140.47
2019-05-07T06:41:12.252Z,101146.55
2019-05-07T06:43:45.509Z,101143.14
2019-05-07T06:46:17.597Z,101150.03
2019-05-07T06:48:49.218Z,101147.23
2019-05-07T06:51:22.070Z,101142.37
2019-05-07T06:53:53.766Z,101145.37
2019-05-07T06:56:26.648Z,101143.95
2019-05-07T06:59:02.071Z,101151.65
2019-05-07T07:01:34.430Z,101144.55
2019-05-07T07:04:07.138Z,101141.95
2019-05-07T07:06:42.664Z,101143.85
2019-05-07T07:09:16.291Z,101139.75
2019-05-07T07:11:49.702Z,101132.03
2019-05-07T07:14:22.739Z,101124.75
2019-05-07T07:16:55.632Z,101116.81
2019-05-07T07:19:32.035Z,101120.27
2019-05-07T07:22:04.608Z,101123.75
2019-05-07T07:24:36.559Z,101116.47
2019-05-07T07:27:09.843Z,101118.11
2019-05-07T07:29:44.993Z,101121.17
2019-05-07T07:32:22.170Z,101119.41
2019-05-07T07:34:55.194Z,101112.92
2019-05-07T07:37:29.433Z,101122.89
2019-05-07T07:40:02.945Z,101131.64
2019-05-07T07:42:36.033Z,101126.06
2019-05-07T07:45:12.384Z,101126.53
2019-05-07T07:47:44.604Z,101127.69
2019-05-07T07:50:16.930Z,101124.76
2019-05-07T07:52:49.091Z,101126.43
2019-05-07T07:55:23.078Z,101115.97
2019-05-07T07:57:56.876Z,101119.62
2019-05-07T08:00:32.785Z,101118.27
2019-05-07T08:03:06.986Z,101131.39
2019-05-07T08:05:45.198Z,101118.30
2019-05-07T08:08:16.800Z,101122.66
2019-05-07T08:10:48.516Z,101115.59
2019-05-07T08:13:19.866Z,101118.86
2019-05-07T08:15:53.801Z,101121.64
2019-05-07T08:18:25.536Z,101115.57
2019-05-07T08:20:58.211Z,101119.43
2019-05-07T08:23:31.986Z,101123.70
2019-05-07T08:26:05.341Z,101128.66
2019-05-07T08:28:38.663Z,101120.25
2019-05-07T08:31:12.058Z,101118.37
2019-05-07T08:33:45.087Z,101122.30
2019-05-07T08:36:18.109Z,101118.63
2019-05-07T08:38:52.724Z,101120.94
2019-05-07T08:41:28.116Z,101128.50
2019-05-07T08:44:11.695Z,101129.88
2019-05-07T08:46:36.041Z,101128.14
2019-05-07T08:49:12.139Z,101122.66
2019-05-07T08:51:46.533Z,101122.36
2019-05-07T08:54:18.418Z,101121.41
2019-05-07T08:56:52.772Z,101112.05
2019-05-07T08:59:25.297Z,101111.34
2019-05-07T09:01:58.515Z,101106.37
2019-05-07T09:04:32.627Z,101107.97
2019-05-07T09:07:04.283Z,101105.00
2019-05-07T09:09:36.031Z,101104.28
2019-05-07T09:12:07.457Z,101097.17
2019-05-07T09:14:42.334Z,101100.46
2019-05-07T09:17:13.328Z,101113.38
2019-05-07T09:19:51.512Z,101113.34
2019-05-07T09:22:19.284Z,101119.50
2019-05-07T09:24:53.295Z,101119.22
2019-05-07T09:27:26.216Z,101119.45
2019-05-07T09:30:02.692Z,101119.61
2019-05-07T09:32:38.120Z,101120.41
2019-05-07T09:35:12.503Z,101115.63
2019-05-07T09:37:45.338Z,101119.47
2019-05-07T09:40:17.990Z,101118.89
2019-05-07T09:42:49.567Z,101115.13
2019-05-07T09:45:22.448Z,101117.66
2019-05-07T09:47:54.304Z,101110.17
2019-05-07T09:50:25.900Z,101113.18
2019-05-07T09:52:57.856Z,101119.95
2019-05-07T09:55:32.598Z,101120.09
2019-05-07T09:58:04.182Z,101121.75
2019-05-07T10:00:39.873Z,101107.87
2019-05-07T10:03:12.729Z,101101.50
2019-05-07T10:05:45.908Z,101088.13
2019-05-07T10:08:17.863Z,101092.01
2019-05-07T10:10:52.817Z,101099.35
2019-05-07T10:13:26.303Z,101097.87
2019-05-07T10:15:59.440Z,101097.89
2019-05-07T10:18:32.146Z,101098.75
2019-05-07T10:21:02.604Z,101104.01
2019-05-07T10:23:35.053Z,101100.61
2019-05-07T10:26:05.799Z,101093.25
2019-05-07T10:28:36.954Z,101090.70
2019-05-07T10:31:09.968Z,101084.73
2019-05-07T10:33:42.175Z,101097.89
2019-05-07T10:36:16.525Z,101097.27
2019-05-07T10:38:48.078Z,101097.59
2019-05-07T10:41:22.369Z,101101.06
2019-05-07T10:43:54.186Z,101099.93
2019-05-07T10:46:25.431Z,101090.47
2019-05-07T10:49:01.789Z,101092.01
2019-05-07T10:51:33.264Z,101087.20
2019-05-07T10:54:06.208Z,101093.72
2019-05-07T10:56:37.969Z,101092.48
2019-05-07T10:59:12.046Z,101088.97
2019-05-07T11:01:43.570Z,101085.71
2019-05-07T11:04:17.220Z,101079.65
2019-05-07T11:06:49.595Z,101073.56
2019-05-07T11:09:22.207Z,101074.17
2019-05-07T11:11:54.012Z,101087.87
2019-05-07T11:14:25.162Z,101086.37
2019-05-07T11:16:58.492Z,101086.30
2019-05-07T11:19:32.412Z,101084.80
2019-05-07T11:22:06.317Z,101088.77
2019-05-07T11:24:38.394Z,101088.66
2019-05-07T11:27:11.909Z,101085.39
2019-05-07T11:29:43.607Z,101078.76
2019-05-07T11:32:16.597Z,101088.84
2019-05-07T11:34:49.323Z,101076.83
2019-05-07T11:37:22.618Z,101084.33
2019-05-07T11:39:55.816Z,101075.95
2019-05-07T11:42:30.282Z,101063.95
2019-05-07T11:45:03.254Z,101068.09
2019-05-07T11:47:36.130Z,101064.44
2019-05-07T11:50:08.503Z,101061.78
2019-05-07T11:52:42.517Z,101060.67
2019-05-07T11:55:14.498Z,101063.55
2019-05-07T11:57:45.236Z,101061.34
2019-05-07T12:00:21.867Z,101059.27
2019-05-07T12:02:53.025Z,101047.14
2019-05-07T12:05:25.053Z,101052.27
2019-05-07T12:07:57.192Z,101050.13
2019-05-07T12:10:28.947Z,101050.97
2019-05-07T12:12:59.572Z,101050.92
2019-05-07T12:15:32.466Z,101048.52
2019-05-07T12:18:04.808Z,101046.85
2019-05-07T12:20:36.186Z,101045.09
2019-05-07T12:23:07.125Z,101049.95
2019-05-07T12:25:37.970Z,101035.61
2019-05-07T12:28:08.922Z,101051.30
2019-05-07T12:30:42.688Z,101049.22
2019-05-07T12:33:15.815Z,101044.52
2019-05-07T12:35:47.849Z,101041.40
2019-05-07T12:38:18.859Z,101045.78
2019-05-07T12:40:52.253Z,101042.51
2019-05-07T12:43:23.652Z,101038.03
2019-05-07T12:45:54.311Z,101036.28
2019-05-07T12:48:24.849Z,101041.44
2019-05-07T12:50:55.740Z,101044.40
2019-05-07T12:53:28.114Z,101037.69
2019-05-07T12:56:02.055Z,101034.68
2019-05-07T12:58:32.668Z,101029.56
2019-05-07T13:01:05.248Z,101035.02
2019-05-07T13:03:37.607Z,101039.33
2019-05-07T13:06:09.217Z,101035.55
2019-05-07T13:08:41.841Z,101035.50
2019-05-07T13:11:13.332Z,101031.49
2019-05-07T13:13:44.830Z,101033.60
2019-05-07T13:16:16.881Z,101037.70
2019-05-07T13:18:48.152Z,101037.57
2019-05-07T13:21:19.987Z,101028.12
2019-05-07T13:23:52.068Z,101027.24
2019-05-07T13:26:24.489Z,101029.24
2019-05-07T13:28:56.320Z,101024.34
2019-05-07T13:31:27.886Z,101021.88
2019-05-07T13:34:02.851Z,101026.70
2019-05-07T13:36:33.072Z,101018.95
2019-05-07T13:39:07.527Z,101019.42
2019-05-07T13:41:40.371Z,101017.94
2019-05-07T13:44:12.783Z,101016.15
2019-05-07T13:46:45.030Z,101014.39
2019-05-07T13:49:15.270Z,101016.63
2019-05-07T13:51:45.432Z,101023.05
2019-05-07T13:54:15.921Z,101021.34
2019-05-07T13:56:48.786Z,101023.10
2019-05-07T13:59:22.334Z,101014.59
2019-05-07T14:01:55.005Z,101017.09
2019-05-07T14:04:25.793Z,101018.98
2019-05-07T14:06:57.901Z,101010.84
2019-05-07T14:09:29.500Z,101016.86
2019-05-07T14:12:01.889Z,101011.39
2019-05-07T14:14:34.517Z,101008.80
2019-05-07T14:17:04.228Z,101017.72
2019-05-07T14:19:34.351Z,101008.08
2019-05-07T14:22:15.299Z,101013.77
2019-05-07T14:24:37.591Z,101014.07
2019-05-07T14:27:07.977Z,101011.05
2019-05-07T14:29:39.352Z,101012.81
2019-05-07T14:32:12.777Z,101014.05
2019-05-07T14:34:44.705Z,101009.70
2019-05-07T14:37:22.000Z,101012.45
2019-05-07T14:39:52.905Z,101018.82
2019-05-07T14:42:24.660Z,101015.36
2019-05-07T14:44:54.854Z,101017.94
2019-05-07T14:47:25.107Z,101023.22
2019-05-07T14:49:55.155Z,101014.69
2019-05-07T14:52:32.203Z,101015.36
2019-05-07T14:54:58.805Z,101010.47
2019-05-07T14:57:28.973Z,101007.80
2019-05-07T14:59:59.081Z,101010.08
2019-05-07T15:02:32.453Z,101018.81
2019-05-07T15:05:05.030Z,101016.95
2019-05-07T15:07:36.550Z,101014.97
2019-05-07T15:10:08.061Z,101015.91
2019-05-07T15:12:46.318Z,101010.67
2019-05-07T15:15:16.485Z,101015.19
2019-05-07T15:17:48.127Z,101011.30
2019-05-07T15:20:18.196Z,101011.02
2019-05-07T15:22:52.610Z,101003.42
2019-05-07T15:25:22.781Z,101006.23
2019-05-07T15:27:54.176Z,101006.65
2019-05-07T15:30:26.273Z,101010.63
2019-05-07T15:32:56.444Z,101004.57
2019-05-07T15:35:27.809Z,101004.84
2019-05-07T15:37:57.931Z,101006.99
2019-05-07T15:40:29.292Z,100998.16
2019-05-07T15:43:02.032Z,101003.90
2019-05-07T15:45:32.726Z,100998.25
2019-05-07T15:48:02.807Z,100997.95
2019-05-07T15:50:34.380Z,100996.78
2019-05-07T15:53:07.132Z,100998.81
2019-05-07T15:55:37.879Z,100997.77
2019-05-07T15:58:08.681Z,100998.52
2019-05-07T16:00:42.419Z,100995.77
2019-05-07T16:03:15.399Z,101000.39
2019-05-07T16:05:48.229Z,100996.98
2019-05-07T16:08:22.643Z,100994.80
2019-05-07T16:10:53.198Z,100991.63
2019-05-07T16:13:25.799Z,100992.35
2019-05-07T16:16:02.211Z,100994.26
2019-05-07T16:18:35.359Z,100991.63
2019-05-07T16:21:05.582Z,100995.88
2019-05-07T16:23:36.317Z,100993.86
2019-05-07T16:26:06.622Z,100999.00
2019-05-07T16:28:37.021Z,100992.47
2019-05-07T16:31:07.709Z,101004.59
2019-05-07T16:33:38.743Z,101005.10
2019-05-07T16:36:09.549Z,101002.66
2019-05-07T16:38:41.970Z,101002.01
2019-05-07T16:41:13.561Z,101007.16
2019-05-07T16:43:44.656Z,101006.70
2019-05-07T16:46:15.433Z,101009.16
2019-05-07T16:48:45.560Z,101010.08
2019-05-07T16:51:16.443Z,101013.29
2019-05-07T16:53:47.315Z,101012.27
2019-05-07T16:56:18.246Z,101012.24
2019-05-07T16:58:52.222Z,101015.51
2019-05-07T17:01:22.198Z,101015.88
2019-05-07T17:03:55.775Z,101020.57
2019-05-07T17:06:27.527Z,101018.05
2019-05-07T17:09:02.784Z,101016.33
2019-05-07T17:11:34.821Z,101019.41
2019-05-07T17:14:06.737Z,101016.84
2019-05-07T17:16:38.632Z,101017.91
2019-05-07T17:19:11.751Z,101016.47
2019-05-07T17:21:43.065Z,101028.94
2019-05-07T17:24:13.977Z,101033.33
2019-05-07T17:26:45.801Z,101031.19
2019-05-07T17:29:17.731Z,101031.33
2019-05-07T17:31:48.686Z,101035.33
2019-05-07T17:34:19.401Z,101036.08
2019-05-07T17:36:52.415Z,101037.80
2019-05-07T18:48:59.716Z,101080.48
2019-05-07T18:51:32.397Z,101080.05
2019-05-07T18:54:03.731Z,101077.95
2019-05-07T18:56:44.224Z,101078.84
2019-05-07T18:59:22.048Z,101084.81
2019-05-07T19:01:53.909Z,101080.58
2019-05-07T19:04:25.185Z,101080.04
2019-05-07T19:06:56.940Z,101082.06
2019-05-07T19:09:27.980Z,101087.91
2019-05-07T19:11:59.712Z,101090.38
2019-05-07T19:14:33.144Z,101087.97
2019-05-07T19:17:03.308Z,101088.41
2019-05-07T19:19:34.961Z,101086.09
2019-05-07T19:22:06.752Z,101083.95
2019-05-07T19:24:45.238Z,101092.53
2019-05-07T19:27:12.718Z,101090.23
2019-05-07T19:29:45.865Z,101092.34
2019-05-07T19:32:16.983Z,101092.52
2019-05-07T19:34:48.344Z,101090.28
2019-05-07T19:37:19.785Z,101087.98
2019-05-07T19:39:55.368Z,101094.11
2019-05-07T19:42:27.164Z,101091.98
2019-05-07T19:45:12.780Z,101092.31
2019-05-07T19:47:43.814Z,101097.75
2019-05-07T19:50:16.021Z,101098.89
2019-05-07T19:52:48.652Z,101095.80
2019-05-07T19:55:22.037Z,101103.48
2019-05-07T19:57:55.012Z,101099.91
2019-05-07T20:00:28.934Z,101097.41
2019-05-07T20:03:03.388Z,101097.14
2019-05-07T20:05:37.253Z,101090.34
2019-05-07T20:08:08.672Z,101090.34
2019-05-07T20:10:42.231Z,101085.35
2019-05-07T20:13:14.633Z,101094.23
2019-05-07T20:15:49.054Z,101090.34
2019-05-07T20:18:22.011Z,101096.27
2019-05-07T20:21:04.000Z,101095.94
2019-05-07T20:23:35.775Z,101098.33
2019-05-07T20:26:22.900Z,101093.06
2019-05-07T20:29:12.307Z,101093.66
2019-05-07T20:31:48.701Z,101096.27
2019-05-07T20:34:22.110Z,101098.76
2019-05-07T20:37:12.934Z,101104.44
2019-05-07T20:39:55.644Z,101106.53
2019-05-07T20:42:56.936Z,101101.05
2019-05-07T20:45:47.736Z,101105.02
2019-05-07T20:48:22.750Z,101099.13
2019-05-07T20:50:54.695Z,101096.44
2019-05-07T20:53:36.289Z,101100.00
2019-05-07T20:56:15.945Z,101099.31
2019-05-07T20:58:47.089Z,101096.44
2019-05-07T21:01:18.233Z,101100.00
2019-05-07T21:03:52.741Z,101104.36
2019-05-07T21:06:27.034Z,101100.98
2019-05-07T21:09:00.434Z,101109.53
2019-05-07T21:11:33.984Z,101108.05
2019-05-07T21:14:06.466Z,101111.20
2019-05-07T21:16:42.623Z,101103.02
2019-05-07T21:19:14.667Z,101111.07
2019-05-07T21:21:47.222Z,101108.86
2019-05-07T21:24:22.392Z,101113.70
2019-05-07T21:26:53.310Z,101113.17
2019-05-07T21:29:25.100Z,101115.92
2019-05-07T21:31:57.515Z,101110.40
2019-05-07T21:34:29.099Z,101107.55
2019-05-07T21:37:03.076Z,101104.75
2019-05-07T21:39:34.507Z,101105.82
2019-05-07T21:42:06.963Z,101102.30
2019-05-07T21:44:39.361Z,101103.87
2019-05-07T21:47:12.665Z,101105.88
2019-05-07T21:49:46.115Z,101108.55
2019-05-07T21:52:19.524Z,101111.01
2019-05-07T21:54:52.713Z,101112.25
2019-05-07T21:57:27.285Z,101112.05
2019-05-07T22:00:02.289Z,101111.77
2019-05-07T22:02:35.238Z,101113.33
2019-05-07T22:05:07.637Z,101105.04
2019-05-07T22:07:39.936Z,101114.69
2019-05-07T22:10:12.804Z,101110.09
2019-05-07T22:12:46.034Z,101114.46
2019-05-07T22:15:22.285Z,101115.33
2019-05-07T22:17:53.836Z,101114.04
2019-05-07T22:20:26.528Z,101116.22
2019-05-07T22:22:58.815Z,101119.09
2019-05-07T22:25:32.833Z,101118.52
2019-05-07T22:28:05.699Z,101112.56
2019-05-07T22:30:41.778Z,101113.09
2019-05-07T22:33:14.553Z,101114.81
2019-05-07T22:35:48.201Z,101116.52
2019-05-07T22:38:22.806Z,101119.24
2019-05-07T22:40:55.041Z,101116.19
2019-05-07T22:43:27.125Z,101124.41
2019-05-07T22:45:59.118Z,101122.38
2019-05-07T22:48:32.551Z,101132.85
2019-05-07T22:51:04.941Z,101131.22
2019-05-07T22:53:36.847Z,101125.56
2019-05-07T22:56:08.820Z,101127.01
2019-05-07T22:58:43.539Z,101128.55
2019-05-07T23:01:17.842Z,101123.29
2019-05-07T23:03:51.853Z,101124.25
2019-05-07T23:06:23.415Z,101124.05
2019-05-07T23:08:55.270Z,101124.94
2019-05-07T23:11:26.158Z,101119.63
2019-05-07T23:13:58.740Z,101117.30
2019-05-07T23:16:32.468Z,101113.44
2019-05-07T23:19:04.664Z,101114.08
2019-05-07T23:21:36.278Z,101116.16
2019-05-07T23:24:07.886Z,101117.20
2019-05-07T23:26:49.677Z,101113.59
2019-05-07T23:29:13.785Z,101122.36
2019-05-07T23:31:45.597Z,101122.76
2019-05-07T23:34:18.739Z,101126.91
2019-05-07T23:36:50.251Z,101121.37
2019-05-07T23:39:23.943Z,101123.59
2019-05-07T23:41:58.078Z,101120.62
2019-05-07T23:44:29.947Z,101119.22
2019-05-07T23:47:02.733Z,101121.34
2019-05-07T23:49:36.339Z,101128.95
2019-05-07T23:52:08.403Z,101122.78
2019-05-07T23:54:42.527Z,101120.60
2019-05-07T23:57:15.371Z,101120.88
2019-05-07T23:59:47.094Z,101118.16
